Aviation Digital Data Service (ADDS)

Output produced by METARs form (0552 UTC 30 August 2015)
found at http://aviationweather.gov/adds/metars/
 
KFDY 300540Z 3006/3106 VRB03KT 5SM BR VCSH SCT050 OVC100 
     TEMPO 3011/3013 1 1/2SM BR 
     FM301400 22010KT P6SM SCT050 BKN150 
     FM310000 22005KT P6SM FEW150 SCT250